Time;durP1;ratioP1;P1;durP2;ratioP2;P2;SDS_P1;SDS_P2;PMS_P1;PMS_P2;Temp;Humidity;BMP_temperature;BMP_pressure;BME280_temperature;BME280_humidity;BME280_pressure;Samples;Min_cycle;Max_cycle;Signal;HPM_P1;HPM_P2
2021/08/26 04:16:54;;;;;;;12.70;7.25;;;;;;;11.98;94.64;98508.56;5301143;23;20264;-79
2021/08/26 04:19:20;;;;;;;11.15;7.65;;;;;;;11.98;95.54;98512.00;4972709;28;20039;-79
2021/08/26 04:21:45;;;;;;;11.30;7.75;;;;;;;11.98;94.84;98506.81;4975247;28;20410;-79
2021/08/26 04:24:11;;;;;;;11.18;7.45;;;;;;;11.91;94.76;98513.09;4976205;28;20448;-79
2021/08/26 04:26:36;;;;;;;9.55;7.28;;;;;;;11.96;95.32;98500.84;4975905;28;20051;-78
2021/08/26 04:29:02;;;;;;;11.35;7.07;;;;;;;11.90;94.94;98502.75;5013278;23;20403;-71
2021/08/26 04:31:27;;;;;;;10.88;6.88;;;;;;;11.95;95.10;98504.31;4975891;28;20031;-71
2021/08/26 04:33:53;;;;;;;13.05;7.82;;;;;;;11.95;94.98;98501.72;4967577;28;20074;-72
2021/08/26 04:36:18;;;;;;;11.27;7.35;;;;;;;11.88;95.04;98504.53;4961374;28;20027;-72
2021/08/26 04:38:43;;;;;;;12.75;7.28;;;;;;;11.88;95.73;98500.19;4948418;29;20055;-72
2021/08/26 04:41:09;;;;;;;12.20;7.53;;;;;;;11.87;96.12;98501.09;4937220;29;20436;-72
2021/08/26 04:43:34;;;;;;;11.15;7.18;;;;;;;12.08;95.96;98492.69;4937470;29;20556;-72
2021/08/26 04:45:59;;;;;;;8.60;6.95;;;;;;;12.09;94.25;98493.56;4937423;29;20417;-72
2021/08/26 04:48:25;;;;;;;13.60;7.78;;;;;;;12.04;94.67;98488.50;4937381;29;20118;-72
2021/08/26 04:50:50;;;;;;;10.77;6.55;;;;;;;12.28;95.03;98478.25;4947728;29;20063;-71
2021/08/26 04:53:15;;;;;;;9.88;6.63;;;;;;;12.21;94.19;98489.75;4956316;28;20082;-71
2021/08/26 04:55:42;;;;;;;9.43;7.25;;;;;;;12.20;93.95;98488.03;4956312;28;20023;-71
2021/08/26 04:58:07;;;;;;;10.88;7.13;;;;;;;12.31;94.32;98488.56;4956203;28;20410;-71
2021/08/26 05:00:33;;;;;;;11.90;7.70;;;;;;;12.23;93.79;98493.13;4956412;28;20024;-70
2021/08/26 05:02:58;;;;;;;12.48;6.97;;;;;;;12.26;93.70;98493.06;4952084;28;20020;-72
2021/08/26 05:05:23;;;;;;;14.27;7.57;;;;;;;12.47;93.22;98488.94;4944869;29;20027;-72
2021/08/26 05:07:49;;;;;;;12.75;6.80;;;;;;;12.49;92.75;98488.03;4936999;29;20087;-71
2021/08/26 05:10:14;;;;;;;15.55;7.90;;;;;;;12.50;92.65;98500.13;4936814;29;20027;-72
2021/08/26 05:12:39;;;;;;;11.05;7.32;;;;;;;12.57;92.72;98500.78;4936675;29;20075;-70
2021/08/26 05:15:06;;;;;;;9.88;6.95;;;;;;;12.53;91.99;98500.03;4937022;29;20074;-70
2021/08/26 05:17:31;;;;;;;13.77;7.25;;;;;;;12.58;92.52;98498.16;4936801;29;20034;-72
2021/08/26 05:19:56;;;;;;;13.38;7.78;;;;;;;12.61;92.41;98494.59;4940155;29;20027;-71
2021/08/26 05:22:22;;;;;;;12.50;7.05;;;;;;;12.78;93.14;98494.06;4955698;28;20027;-70
2021/08/26 05:24:50;;;;;;;8.95;6.72;;;;;;;12.77;91.97;98490.63;4954456;29;20024;-71
2021/08/26 05:27:16;;;;;;;11.95;8.02;;;;;;;12.80;92.61;98497.47;4955788;28;20023;-72
2021/08/26 05:29:42;;;;;;;15.43;7.13;;;;;;;12.94;92.12;98497.88;4955538;28;20042;-73
2021/08/26 05:32:07;;;;;;;11.93;7.05;;;;;;;12.96;91.18;98503.91;4954647;28;20775;-71
2021/08/26 05:34:33;;;;;;;12.77;7.00;;;;;;;13.02;91.03;98508.06;4961684;28;20035;-72
2021/08/26 05:36:58;;;;;;;10.65;6.88;;;;;;;13.04;90.75;98507.09;4936300;29;20023;-73
2021/08/26 05:39:23;;;;;;;13.93;7.40;;;;;;;13.07;91.34;98501.78;4936281;29;20031;-72
2021/08/26 05:41:49;;;;;;;12.00;7.93;;;;;;;13.24;90.44;98497.81;4950789;29;20457;-71
2021/08/26 05:44:16;;;;;;;12.80;7.22;;;;;;;13.23;88.63;98503.91;4935112;29;20038;-71
2021/08/26 05:46:42;;;;;;;12.95;7.20;;;;;;;13.21;89.22;98503.09;4936195;29;20066;-73
2021/08/26 05:49:07;;;;;;;14.35;7.63;;;;;;;13.31;90.11;98501.91;4936418;29;20388;-71
2021/08/26 05:51:33;;;;;;;14.68;7.50;;;;;;;13.30;89.04;98493.28;4952161;29;20114;-72
2021/08/26 05:53:58;;;;;;;13.80;7.72;;;;;;;13.21;89.29;98497.91;4955209;28;20037;-70
2021/08/26 05:56:23;;;;;;;16.33;7.70;;;;;;;13.32;89.77;98501.00;4955116;28;20023;-73
2021/08/26 05:58:49;;;;;;;12.60;8.52;;;;;;;13.37;89.07;98504.31;4955155;28;20440;-73
2021/08/26 06:01:14;;;;;;;13.68;6.88;;;;;;;13.49;89.38;98503.91;4955008;28;20093;-73
2021/08/26 06:03:39;;;;;;;18.95;8.05;;;;;;;13.42;88.82;98509.38;4947037;28;20463;-72
2021/08/26 06:06:05;;;;;;;13.05;7.68;;;;;;;13.71;88.65;98509.22;4942283;29;20031;-72
2021/08/26 06:08:30;;;;;;;9.85;7.22;;;;;;;13.82;87.36;98508.81;4935770;29;20024;-73
2021/08/26 06:10:56;;;;;;;12.43;7.55;;;;;;;13.85;88.08;98516.53;4935701;29;20385;-73
2021/08/26 06:13:22;;;;;;;11.70;7.30;;;;;;;14.20;87.07;98515.25;4934393;29;20043;-72
2021/08/26 06:15:47;;;;;;;16.17;7.65;;;;;;;14.26;86.95;98517.63;4932133;29;20139;-73
2021/08/26 06:18:14;;;;;;;13.60;8.23;;;;;;;14.04;85.13;98522.78;4940818;28;20443;-73
2021/08/26 06:20:41;;;;;;;11.55;7.93;;;;;;;13.85;85.00;98521.75;4947012;28;20050;-72
2021/08/26 06:23:06;;;;;;;15.57;8.20;;;;;;;13.90;85.34;98514.63;4944126;29;20023;-71
2021/08/26 06:25:31;;;;;;;11.80;8.00;;;;;;;13.91;85.19;98524.13;4954374;29;20466;-72
2021/08/26 06:27:59;;;;;;;14.43;7.70;;;;;;;13.91;86.09;98521.53;4954335;28;20055;-71
2021/08/26 06:30:24;;;;;;;12.40;7.65;;;;;;;14.26;86.68;98522.00;4954583;28;20408;-71
2021/08/26 06:32:50;;;;;;;13.65;8.35;;;;;;;14.24;84.36;98521.22;4945304;29;20030;-70
2021/08/26 06:35:15;;;;;;;10.75;7.70;;;;;;;14.35;85.99;98522.50;4946272;28;20123;-72
2021/08/26 06:37:41;;;;;;;17.67;8.43;;;;;;;14.28;84.38;98518.44;4936602;29;20538;-71
2021/08/26 06:40:07;;;;;;;13.27;7.43;;;;;;;14.06;85.38;98520.13;4942967;29;20020;-73
2021/08/26 06:42:32;;;;;;;12.52;8.30;;;;;;;14.27;85.85;98523.72;4934854;29;20015;-72
2021/08/26 06:44:57;;;;;;;12.60;8.18;;;;;;;14.18;85.40;98518.84;4934276;29;20027;-71
2021/08/26 06:47:22;;;;;;;13.18;8.10;;;;;;;13.83;87.79;98528.78;4935035;29;20036;-73
2021/08/26 06:49:48;;;;;;;14.00;8.27;;;;;;;13.80;88.75;98524.50;4939142;29;20031;-72
2021/08/26 06:52:14;;;;;;;13.85;8.85;;;;;;;13.69;90.83;98531.00;4945847;28;20034;-70
2021/08/26 06:54:39;;;;;;;15.73;8.23;;;;;;;13.99;92.34;98519.50;4935480;28;20382;-71
2021/08/26 06:57:06;;;;;;;15.15;9.00;;;;;;;14.01;91.81;98522.03;4934743;29;20485;-71
2021/08/26 06:59:32;;;;;;;13.63;8.55;;;;;;;14.41;91.88;98516.25;4934568;29;20026;-72
2021/08/26 07:01:57;;;;;;;18.25;8.95;;;;;;;14.31;89.30;98514.84;4938711;29;20031;-71
2021/08/26 07:04:23;;;;;;;20.50;9.73;;;;;;;14.30;91.17;98518.38;4945930;28;20019;-73
2021/08/26 07:06:52;;;;;;;14.23;9.32;;;;;;;14.27;90.29;98518.50;4934484;29;20074;-71
2021/08/26 07:09:17;;;;;;;13.73;9.15;;;;;;;14.30;90.14;98518.38;4934002;29;20039;-72
2021/08/26 07:11:43;;;;;;;14.02;9.43;;;;;;;14.29;89.82;98514.06;4944995;29;20031;-72
2021/08/26 07:14:08;;;;;;;24.00;9.50;;;;;;;14.48;90.05;98507.28;4948415;29;20110;-72
2021/08/26 07:16:33;;;;;;;16.50;10.00;;;;;;;14.53;88.95;98515.78;4953834;29;20035;-71
2021/08/26 07:18:59;;;;;;;24.05;10.68;;;;;;;14.73;88.93;98512.41;4952802;28;20027;-71
2021/08/26 07:21:24;;;;;;;23.50;10.07;;;;;;;15.06;88.48;98512.84;4952189;28;20388;-72
2021/08/26 07:23:50;;;;;;;13.02;9.80;;;;;;;15.02;87.38;98498.19;4933897;29;20024;-70
2021/08/26 07:26:15;;;;;;;16.40;10.02;;;;;;;15.01;87.99;98503.50;4949350;29;20452;-72
2021/08/26 07:28:40;;;;;;;22.40;11.38;;;;;;;14.93;88.25;98508.16;4953180;28;20035;-72
2021/08/26 07:31:06;;;;;;;15.68;11.35;;;;;;;14.85;89.31;98505.88;4952699;28;20066;-72
2021/08/26 07:33:31;;;;;;;17.45;11.70;;;;;;;15.01;87.86;98506.94;4945247;28;20102;-72
2021/08/26 07:35:56;;;;;;;21.60;11.27;;;;;;;15.06;87.69;98505.00;4946066;29;20400;-72
2021/08/26 07:38:22;;;;;;;16.75;11.00;;;;;;;14.87;87.31;98504.88;4953456;28;20437;-71
2021/08/26 07:40:47;;;;;;;23.25;12.45;;;;;;;14.92;86.89;98504.72;4953224;28;20050;-72
2021/08/26 07:43:14;;;;;;;17.55;12.02;;;;;;;14.97;86.09;98505.38;4953111;28;20400;-73
2021/08/26 07:45:39;;;;;;;17.15;12.00;;;;;;;14.97;85.73;98494.94;4953552;28;20098;-71
2021/08/26 07:48:05;;;;;;;19.42;11.43;;;;;;;15.14;85.34;98492.50;4953449;28;20465;-72
2021/08/26 07:50:30;;;;;;;20.35;12.27;;;;;;;15.12;83.75;98499.53;4953304;28;20067;-71
2021/08/26 07:52:56;;;;;;;18.02;11.23;;;;;;;15.15;83.78;98499.41;4934348;29;20032;-72
2021/08/26 07:55:21;;;;;;;18.92;11.82;;;;;;;15.05;84.66;98503.31;4934966;29;20035;-72
2021/08/26 07:57:46;;;;;;;22.75;12.00;;;;;;;14.92;85.51;98502.09;4938165;29;20032;-72
2021/08/26 08:00:12;;;;;;;20.25;13.07;;;;;;;14.47;87.24;98505.56;4938017;29;20152;-72
2021/08/26 08:02:38;;;;;;;17.77;13.32;;;;;;;14.28;89.33;98515.00;4945906;29;20039;-70
2021/08/26 08:05:03;;;;;;;24.35;16.55;;;;;;;13.95;92.01;98517.06;4944762;29;20019;-70
2021/08/26 08:07:29;;;;;;;21.38;15.48;;;;;;;14.02;91.50;98513.31;4948990;29;20055;-72
2021/08/26 08:09:54;;;;;;;24.63;16.17;;;;;;;13.88;92.50;98519.91;4937909;29;20027;-71
2021/08/26 08:12:22;;;;;;;22.67;16.55;;;;;;;13.78;94.07;98525.44;4947126;29;20037;-71
2021/08/26 08:14:47;;;;;;;23.52;14.30;;;;;;;14.01;92.82;98517.69;4955439;29;20035;-71
2021/08/26 08:17:13;;;;;;;23.90;16.13;;;;;;;13.88;95.13;98522.50;4956471;28;20030;-70
2021/08/26 08:19:38;;;;;;;23.52;16.35;;;;;;;13.81;95.14;98527.97;4954822;28;20105;-72
2021/08/26 08:22:04;;;;;;;27.10;16.77;;;;;;;14.25;95.74;98525.50;4944825;28;20027;-71
2021/08/26 08:24:29;;;;;;;23.23;16.50;;;;;;;14.19;96.16;98520.53;4935843;29;20118;-70
2021/08/26 08:26:55;;;;;;;23.00;15.82;;;;;;;13.90;95.50;98517.22;4934770;29;20413;-70
2021/08/26 08:29:21;;;;;;;27.77;15.68;;;;;;;14.31;96.39;98514.84;4935435;29;20082;-72
2021/08/26 08:31:46;;;;;;;21.42;15.13;;;;;;;14.34;95.24;98518.19;4945940;28;20520;-72
2021/08/26 08:34:11;;;;;;;18.88;13.80;;;;;;;14.63;93.61;98513.69;4945759;29;20024;-72
2021/08/26 08:36:37;;;;;;;21.92;13.95;;;;;;;14.74;93.56;98518.47;4938969;28;20030;-72
2021/08/26 08:39:06;;;;;;;22.88;12.55;;;;;;;14.77;91.79;98507.94;4936257;29;20028;-70
2021/08/26 08:41:32;;;;;;;19.75;12.82;;;;;;;14.78;93.07;98509.63;4936025;29;20040;-70
2021/08/26 08:44:01;;;;;;;22.70;12.65;;;;;;;14.62;92.78;98510.22;4937294;29;20392;-71
2021/08/26 08:46:28;;;;;;;19.63;14.23;;;;;;;14.58;94.32;98508.63;4937338;29;20233;-71
2021/08/26 08:48:55;;;;;;;25.80;14.82;;;;;;;14.55;94.09;98518.31;4936667;29;20034;-72
2021/08/26 08:51:22;;;;;;;23.60;14.32;;;;;;;14.44;96.01;98512.66;4946389;29;20481;-70
2021/08/26 08:53:47;;;;;;;25.63;14.00;;;;;;;14.51;96.16;98522.81;4937033;29;20027;-72
2021/08/26 08:56:13;;;;;;;21.55;14.38;;;;;;;14.53;96.03;98514.94;4937070;29;20035;-70
2021/08/26 08:58:40;;;;;;;22.55;14.85;;;;;;;14.53;96.40;98515.78;4936800;29;20039;-71
2021/08/26 09:01:07;;;;;;;20.90;13.35;;;;;;;14.57;95.51;98511.31;4936088;29;20039;-70
2021/08/26 09:03:36;;;;;;;18.75;13.23;;;;;;;14.52;93.91;98514.09;4944339;29;20400;-73
2021/08/26 09:06:03;;;;;;;21.65;14.50;;;;;;;14.66;95.12;98516.19;4940519;28;20035;-73
2021/08/26 09:08:30;;;;;;;19.60;13.75;;;;;;;14.46;94.61;98527.34;4937449;28;20063;-72
2021/08/26 09:11:17;;;;;;;19.75;14.00;;;;;;;14.34;96.35;98525.19;4947927;29;20034;-71
2021/08/26 09:13:44;;;;;;;22.85;14.73;;;;;;;14.37;97.09;98525.06;4943046;29;20035;-72
2021/08/26 09:16:11;;;;;;;23.55;15.98;;;;;;;14.11;97.30;98524.25;4955857;28;20086;-71
2021/08/26 09:18:37;;;;;;;27.70;17.17;;;;;;;14.01;99.47;98516.84;4955634;28;20027;-72
2021/08/26 09:21:09;;;;;;;26.42;18.15;;;;;;;14.05;98.52;98518.44;4954046;28;20098;-72
2021/08/26 09:23:50;;;;;;;25.38;18.20;;;;;;;14.14;98.42;98518.09;4935711;29;20118;-73
2021/08/26 09:26:26;;;;;;;29.67;18.63;;;;;;;14.22;97.66;98520.44;4936123;29;20032;-71
2021/08/26 09:28:53;;;;;;;23.98;16.67;;;;;;;14.14;97.33;98518.94;4934853;29;20031;-72
2021/08/26 09:31:24;;;;;;;24.23;17.27;;;;;;;14.05;98.01;98514.06;4936408;29;20035;-72
2021/08/26 09:33:54;;;;;;;27.08;16.67;;;;;;;14.18;98.43;98529.25;4943939;29;20074;-71
2021/08/26 09:36:32;;;;;;;21.73;16.95;;;;;;;14.20;99.38;98524.84;4934363;29;20033;-73
2021/08/26 09:38:59;;;;;;;24.25;17.30;;;;;;;14.21;98.79;98524.78;4936167;29;20485;-73
2021/08/26 09:41:40;;;;;;;24.60;16.83;;;;;;;14.14;98.50;98529.38;4935399;29;20027;-74
2021/08/26 09:44:09;;;;;;;25.85;18.73;;;;;;;14.17;100.00;98528.41;4935707;29;20023;-70
2021/08/26 09:46:35;;;;;;;26.60;19.13;;;;;;;14.26;100.00;98529.81;4935640;29;20039;-70
2021/08/26 09:49:08;;;;;;;22.90;17.20;;;;;;;14.46;100.00;98519.53;4938595;29;20027;-70
2021/08/26 09:51:34;;;;;;;22.58;18.30;;;;;;;14.36;99.46;98518.16;4946519;28;20063;-70
2021/08/26 09:54:00;;;;;;;24.77;17.38;;;;;;;14.17;99.88;98523.22;4936017;29;20527;-71
2021/08/26 09:56:37;;;;;;;21.33;17.23;;;;;;;14.19;100.00;98525.75;4936122;29;20034;-71
2021/08/26 09:59:05;;;;;;;21.83;16.77;;;;;;;14.24;100.00;98529.03;4934880;29;20094;-70
2021/08/26 10:01:30;;;;;;;23.80;17.98;;;;;;;14.09;100.00;98531.28;4935953;29;20024;-73
2021/08/26 10:03:56;;;;;;;24.00;17.73;;;;;;;14.17;100.00;98527.53;4942303;29;20050;-73
2021/08/26 10:06:22;;;;;;;21.63;18.20;;;;;;;14.13;100.00;98532.88;4946175;28;20046;-74
2021/08/26 10:08:49;;;;;;;26.13;19.92;;;;;;;14.17;100.00;98533.63;4946275;28;20043;-73
2021/08/26 10:11:17;;;;;;;24.17;17.98;;;;;;;14.19;100.00;98525.75;4943819;29;20031;-70
2021/08/26 10:13:43;;;;;;;29.17;19.25;;;;;;;14.28;100.00;98525.41;4945879;29;20062;-72
2021/08/26 10:16:09;;;;;;;24.75;18.63;;;;;;;14.28;100.00;98525.41;4944863;29;20034;-69
2021/08/26 10:18:36;;;;;;;27.02;17.88;;;;;;;14.39;100.00;98534.50;4945530;28;20063;-70
2021/08/26 10:21:01;;;;;;;24.98;18.40;;;;;;;14.44;100.00;98526.53;4945557;29;20058;-73
2021/08/26 10:23:28;;;;;;;18.65;16.42;;;;;;;14.45;100.00;98525.63;4943863;29;20134;-72
2021/08/26 10:25:55;;;;;;;21.33;15.77;;;;;;;14.36;100.00;98528.59;4945781;29;20492;-70
2021/08/26 10:28:22;;;;;;;19.73;14.93;;;;;;;14.33;100.00;98539.13;4945905;28;20031;-73
2021/08/26 10:30:48;;;;;;;18.23;15.18;;;;;;;14.30;100.00;98532.25;4973228;23;21053;-72
2021/08/26 10:33:22;;;;;;;16.65;13.95;;;;;;;14.42;100.00;98522.28;4956569;28;20151;-72
2021/08/26 10:35:50;;;;;;;19.00;14.70;;;;;;;14.71;100.00;98529.03;4958447;28;20034;-71
2021/08/26 10:38:20;;;;;;;16.77;11.95;;;;;;;14.90;100.00;98530.03;4957578;28;20027;-72
2021/08/26 10:40:46;;;;;;;13.90;12.35;;;;;;;14.96;98.52;98524.56;4930796;28;20050;-72
2021/08/26 10:43:33;;;;;;;12.27;9.20;;;;;;;14.62;97.55;98518.03;4925903;29;20504;-72
2021/08/26 10:45:58;;;;;;;9.63;8.38;;;;;;;14.73;98.02;98522.00;4922781;29;20089;-71
2021/08/26 10:48:25;;;;;;;10.88;8.73;;;;;;;14.94;98.63;98525.50;4912647;29;20713;-72
2021/08/26 10:51:15;;;;;;;12.32;9.80;;;;;;;14.98;96.94;98521.88;4910991;29;20023;-71
2021/08/26 10:53:49;;;;;;;8.60;7.70;;;;;;;14.96;95.73;98519.34;4905667;29;20091;-71
2021/08/26 10:56:29;;;;;;;12.40;9.93;;;;;;;15.16;94.56;98521.97;4890570;29;20038;-72
2021/08/26 10:58:59;;;;;;;7.47;6.55;;;;;;;15.46;92.96;98518.16;4885380;29;20118;-72
2021/08/26 11:01:38;;;;;;;7.60;6.80;;;;;;;15.38;92.20;98515.91;4883859;29;20519;-72
2021/08/26 11:04:17;;;;;;;;;;;;;;;15.51;90.69;98522.28;4892990;28;20035;-71
2021/08/26 11:06:43;;;;;;;14.57;7.43;;;;;;;15.90;91.31;98508.44;4879730;28;19923;-72
2021/08/26 11:09:12;;;;;;;8.07;7.25;;;;;;;16.04;91.19;98511.31;4873861;29;20115;-72
2021/08/26 11:11:40;;;;;;;9.23;6.38;;;;;;;15.51;91.01;98514.44;4887302;29;20027;-72
2021/08/26 11:14:06;;;;;;;7.50;6.53;;;;;;;16.05;89.44;98507.81;4886226;29;20042;-72
2021/08/26 11:16:37;;;;;;;6.93;5.55;;;;;;;16.73;83.71;98504.72;4901214;29;20031;-72
2021/08/26 11:19:05;;;;;;;7.80;5.85;;;;;;;17.24;83.42;98510.97;4908707;29;20040;-72
2021/08/26 11:21:43;;;;;;;7.60;5.68;;;;;;;17.03;83.09;98515.50;4904320;29;20031;-72
2021/08/26 11:24:19;;;;;;;5.82;5.22;;;;;;;17.21;82.23;98512.84;4908192;29;20033;-72
2021/08/26 11:26:57;;;;;;;9.70;7.93;;;;;;;17.41;80.44;98504.00;4909445;29;20028;-72
2021/08/26 11:29:23;;;;;;;6.35;5.32;;;;;;;17.30;79.02;98497.56;4908337;28;20031;-72
2021/08/26 11:31:54;;;;;;;8.45;5.60;;;;;;;17.18;82.58;98502.50;4905340;28;20539;-72
2021/08/26 11:34:25;;;;;;;6.78;5.38;;;;;;;17.06;80.64;98497.84;4901064;29;20122;-72
2021/08/26 11:36:57;;;;;;;6.30;5.35;;;;;;;17.38;81.82;98501.50;4896624;29;20928;-72
2021/08/26 11:39:22;;;;;;;6.15;5.05;;;;;;;17.45;78.55;98499.41;4907168;28;20035;-72
2021/08/26 11:41:48;;;;;;;8.65;5.03;;;;;;;18.84;72.90;98496.47;4914226;28;20109;-72
2021/08/26 11:44:14;;;;;;;8.10;5.18;;;;;;;18.95;72.66;98507.22;4911794;29;20032;-72
2021/08/26 11:46:40;;;;;;;12.23;4.97;;;;;;;18.71;74.13;98509.41;4914814;29;20035;-74
2021/08/26 11:49:06;;;;;;;5.32;4.80;;;;;;;19.03;74.85;98505.00;4911987;29;20038;-72
2021/08/26 11:51:31;;;;;;;13.30;7.75;;;;;;;19.16;71.88;98502.53;4927335;28;20082;-73
2021/08/26 11:54:17;;;;;;;7.10;5.45;;;;;;;18.42;74.33;98498.75;4924454;29;20046;-73
2021/08/26 11:56:44;;;;;;;9.50;5.60;;;;;;;17.90;73.89;98500.66;4928434;29;20090;-73
2021/08/26 11:59:24;;;;;;;8.25;5.85;;;;;;;17.54;75.96;98498.97;4934858;29;20493;-73
2021/08/26 12:01:49;;;;;;;7.90;5.45;;;;;;;18.01;77.35;98498.31;4935407;29;20050;-73
2021/08/26 12:04:15;;;;;;;9.07;6.00;;;;;;;18.92;72.47;98496.91;4939380;29;20053;-73
2021/08/26 12:06:48;;;;;;;7.40;5.45;;;;;;;18.87;73.09;98485.81;4941425;29;20031;-73
2021/08/26 12:09:13;;;;;;;7.18;5.55;;;;;;;19.47;70.18;98491.91;4942380;29;20046;-73
2021/08/26 12:11:39;;;;;;;9.30;5.43;;;;;;;19.91;67.01;98492.88;4942050;28;20039;-73
2021/08/26 12:14:08;;;;;;;6.25;5.60;;;;;;;19.26;68.39;98488.78;4941948;29;20035;-73
2021/08/26 12:16:33;;;;;;;11.27;5.70;;;;;;;19.42;69.38;98490.50;4941700;29;20432;-74
2021/08/26 12:18:59;;;;;;;13.55;6.15;;;;;;;19.15;69.02;98493.81;4941790;29;20090;-73
2021/08/26 12:21:25;;;;;;;9.18;5.38;;;;;;;18.79;70.29;98490.63;4940683;29;20062;-73
2021/08/26 12:23:50;;;;;;;13.40;6.35;;;;;;;18.33;69.35;98488.75;4942442;28;20034;-73
2021/08/26 12:26:20;;;;;;;9.38;6.60;;;;;;;17.95;73.52;98488.16;4942077;29;20027;-73
2021/08/26 12:28:56;;;;;;;11.85;5.97;;;;;;;17.47;71.84;98489.72;4941305;29;20076;-73
2021/08/26 12:31:22;;;;;;;11.65;6.05;;;;;;;17.76;70.18;98490.06;4942086;29;20042;-73
2021/08/26 12:34:08;;;;;;;10.25;6.43;;;;;;;18.23;69.44;98472.66;4941697;29;20031;-73
2021/08/26 12:36:42;;;;;;;9.52;6.22;;;;;;;18.93;67.63;98467.06;4942069;29;20462;-73
2021/08/26 12:39:24;;;;;;;10.30;7.00;;;;;;;18.95;69.00;98470.44;4941620;29;20038;-73
2021/08/26 12:42:10;;;;;;;6.82;5.80;;;;;;;18.58;67.39;98469.03;4940728;29;20036;-73
2021/08/26 12:44:36;;;;;;;9.70;6.68;;;;;;;18.22;69.67;98460.44;4938797;28;20118;-73
2021/08/26 12:47:07;;;;;;;9.90;6.85;;;;;;;18.07;68.86;98471.78;4941713;29;20031;-74
2021/08/26 12:49:47;;;;;;;12.88;6.00;;;;;;;17.87;72.23;98472.81;4941337;29;20045;-73
2021/08/26 12:52:15;;;;;;;10.43;6.70;;;;;;;17.64;71.75;98471.38;4940596;28;21437;-73
2021/08/26 12:54:41;;;;;;;9.18;6.93;;;;;;;17.93;71.72;98469.03;4941499;29;20067;-73
2021/08/26 12:57:20;;;;;;;15.25;7.47;;;;;;;18.94;67.43;98461.72;4918719;28;20039;-73
2021/08/26 12:59:46;;;;;;;10.55;6.13;;;;;;;19.55;67.04;98454.69;4947650;28;20031;-73
2021/08/26 13:02:12;;;;;;;11.45;6.32;;;;;;;20.01;64.69;98457.19;4940763;29;20148;-73
2021/08/26 13:04:38;;;;;;;9.45;6.03;;;;;;;20.16;63.23;98445.72;4940614;29;20058;-73
2021/08/26 13:07:20;;;;;;;13.63;6.95;;;;;;;19.62;64.43;98450.78;4941340;29;20511;-73
2021/08/26 13:09:59;;;;;;;10.43;6.28;;;;;;;18.85;65.37;98453.53;4937587;29;20019;-73
2021/08/26 13:12:26;;;;;;;8.20;5.90;;;;;;;19.23;63.39;98446.91;4941016;29;20108;-73
2021/08/26 13:14:52;;;;;;;8.20;5.68;;;;;;;19.92;62.26;98439.31;4940304;29;20036;-72
2021/08/26 13:17:18;;;;;;;7.22;5.07;;;;;;;20.25;60.49;98429.34;4941323;29;20054;-73
2021/08/26 13:19:48;;;;;;;7.90;5.13;;;;;;;20.17;59.05;98426.38;4940733;29;20219;-73
2021/08/26 13:22:22;;;;;;;8.20;5.60;;;;;;;20.18;61.82;98438.56;4955724;28;20035;-73
2021/08/26 13:24:49;;;;;;;10.20;5.95;;;;;;;19.63;60.84;98431.47;4939885;29;20488;-73
2021/08/26 13:27:16;;;;;;;9.25;6.13;;;;;;;19.35;61.66;98437.47;4940289;29;20649;-73
2021/08/26 13:29:42;;;;;;;9.43;6.63;;;;;;;19.55;62.37;98438.91;4940712;28;20035;-73
2021/08/26 13:32:10;;;;;;;9.80;6.10;;;;;;;20.02;61.09;98422.06;4940755;29;21024;-73
2021/08/26 13:34:35;;;;;;;8.50;6.05;;;;;;;20.61;58.15;98425.34;4940589;29;20066;-73
2021/08/26 13:37:01;;;;;;;8.02;5.38;;;;;;;20.54;60.78;98427.53;4940369;28;20130;-73
2021/08/26 13:39:26;;;;;;;7.22;5.32;;;;;;;21.06;57.43;98425.91;4940337;29;20125;-73
2021/08/26 13:41:54;;;;;;;8.20;5.35;;;;;;;21.24;56.08;98424.69;4940730;29;20023;-73
2021/08/26 13:44:20;;;;;;;7.97;5.32;;;;;;;21.32;58.14;98421.56;4940753;29;20157;-73
2021/08/26 13:46:45;;;;;;;7.57;4.53;;;;;;;20.98;54.50;98438.75;4940697;28;20166;-73
2021/08/26 13:49:10;;;;;;;7.40;4.68;;;;;;;20.82;58.23;98431.00;4939547;28;20122;-73
2021/08/26 13:51:36;;;;;;;8.98;5.13;;;;;;;19.58;57.93;98437.88;4940297;29;20118;-73
2021/08/26 13:54:01;;;;;;;9.15;5.65;;;;;;;18.32;60.64;98431.09;4940049;28;20042;-73
2021/08/26 13:56:26;;;;;;;9.80;5.60;;;;;;;18.35;63.21;98438.81;4940469;28;20056;-73
2021/08/26 13:58:52;;;;;;;10.57;5.43;;;;;;;17.92;61.78;98441.97;4940314;29;20035;-73
2021/08/26 14:01:17;;;;;;;10.55;5.63;;;;;;;17.79;65.43;98438.31;4939416;28;20122;-73
2021/08/26 14:03:42;;;;;;;8.02;4.70;;;;;;;17.88;62.25;98434.34;4939535;29;20034;-73
2021/08/26 14:06:09;;;;;;;16.05;6.85;;;;;;;17.81;61.92;98436.47;4940285;29;20027;-73
2021/08/26 14:08:35;;;;;;;11.65;5.35;;;;;;;17.98;63.89;98422.44;4940301;29;20054;-73
2021/08/26 14:11:00;;;;;;;7.03;3.85;;;;;;;18.16;59.17;98426.69;4939829;29;20093;-73
2021/08/26 14:13:26;;;;;;;6.97;4.43;;;;;;;17.96;60.17;98432.19;4939171;28;20050;-73
2021/08/26 14:15:51;;;;;;;8.65;4.00;;;;;;;17.69;62.07;98435.28;4939944;29;20036;-73
2021/08/26 14:18:17;;;;;;;14.73;4.70;;;;;;;17.65;61.64;98432.94;4940066;29;20035;-73
2021/08/26 14:20:42;;;;;;;13.20;4.38;;;;;;;17.70;62.01;98437.00;4940013;28;20051;-73
2021/08/26 14:23:08;;;;;;;16.88;4.57;;;;;;;17.67;63.89;98437.16;4939231;29;20059;-73
2021/08/26 14:25:35;;;;;;;8.20;4.20;;;;;;;17.66;62.48;98440.72;4939536;29;20035;-73
2021/08/26 14:28:02;;;;;;;10.30;3.65;;;;;;;17.56;61.71;98433.41;4940021;28;20037;-73
2021/08/26 14:30:28;;;;;;;9.75;4.30;;;;;;;17.92;61.78;98430.66;4939735;29;20028;-72
2021/08/26 14:32:53;;;;;;;8.88;4.07;;;;;;;18.27;61.38;98433.13;4939291;29;20187;-73
2021/08/26 14:35:18;;;;;;;8.82;3.75;;;;;;;18.59;61.15;98426.94;4938873;29;20031;-73
2021/08/26 14:37:44;;;;;;;11.63;3.78;;;;;;;18.63;57.18;98428.47;4939994;29;20500;-73
2021/08/26 14:40:10;;;;;;;10.02;3.63;;;;;;;18.63;56.15;98431.09;4939622;29;20476;-73
2021/08/26 14:42:36;;;;;;;5.85;4.05;;;;;;;19.04;58.52;98433.16;4938194;29;20051;-73
2021/08/26 14:45:01;;;;;;;6.22;3.35;;;;;;;19.30;58.85;98438.69;4953788;28;20042;-73
2021/08/26 14:47:27;;;;;;;6.30;3.20;;;;;;;19.11;55.26;98429.25;4938832;29;20142;-73
2021/08/26 14:49:52;;;;;;;5.22;2.88;;;;;;;19.08;55.77;98429.44;4939487;29;20019;-73
2021/08/26 14:52:17;;;;;;;36.65;5.00;;;;;;;18.79;56.72;98433.72;4939594;29;21505;-73
2021/08/26 14:54:43;;;;;;;19.63;4.32;;;;;;;18.37;57.66;98426.44;4939486;29;20038;-73
2021/08/26 14:57:08;;;;;;;28.98;5.22;;;;;;;18.59;57.52;98421.72;4939150;29;20074;-73
2021/08/26 14:59:34;;;;;;;9.73;4.15;;;;;;;18.52;59.79;98436.13;4937698;29;20039;-73
2021/08/26 15:01:59;;;;;;;9.52;3.10;;;;;;;18.45;58.96;98429.50;4939370;29;20384;-73
2021/08/26 15:04:25;;;;;;;7.70;3.05;;;;;;;18.33;59.39;98425.78;4946814;28;20046;-74
2021/08/26 15:06:50;;;;;;;7.57;3.88;;;;;;;18.16;59.58;98429.31;4936357;29;20031;-74
2021/08/26 15:09:16;;;;;;;4.70;2.80;;;;;;;18.19;61.60;98423.91;4939498;29;20043;-74
2021/08/26 15:11:42;;;;;;;9.65;3.78;;;;;;;18.07;61.44;98429.81;4937430;29;20031;-75
2021/08/26 15:14:07;;;;;;;9.02;3.45;;;;;;;18.30;59.90;98428.56;4938641;29;20035;-74
2021/08/26 15:16:32;;;;;;;5.15;3.75;;;;;;;18.32;61.91;98425.84;4939567;29;20071;-76
2021/08/26 15:18:58;;;;;;;8.85;4.32;;;;;;;18.27;63.24;98415.63;4939432;28;20449;-75
2021/08/26 15:21:23;;;;;;;6.55;3.50;;;;;;;17.73;62.68;98418.50;4938501;29;20534;-72
2021/08/26 15:23:48;;;;;;;8.38;3.78;;;;;;;17.70;62.29;98423.91;4937493;28;20140;-74
2021/08/26 15:26:14;;;;;;;6.85;3.97;;;;;;;17.91;62.61;98428.97;4937779;29;20505;-74
2021/08/26 15:28:39;;;;;;;8.63;3.88;;;;;;;17.79;61.83;98424.34;4937676;28;20054;-72
2021/08/26 15:31:04;;;;;;;4.28;3.75;;;;;;;17.66;61.75;98430.22;4936145;29;20035;-72
2021/08/26 15:33:30;;;;;;;10.20;3.55;;;;;;;17.77;62.58;98427.06;4937396;29;20038;-73
2021/08/26 15:35:55;;;;;;;5.85;3.38;;;;;;;17.66;62.69;98424.97;4937954;28;20432;-73
2021/08/26 15:38:21;;;;;;;24.15;5.30;;;;;;;17.82;62.98;98427.66;4937373;29;20733;-73
2021/08/26 15:40:47;;;;;;;8.00;3.60;;;;;;;17.81;61.15;98418.13;4938875;29;20036;-73